Time;durP1;ratioP1;P1;durP2;ratioP2;P2;SDS_P1;SDS_P2;PMS_P1;PMS_P2;Temp;Humidity;BMP_temperature;BMP_pressure;BME280_temperature;BME280_humidity;BME280_pressure;Samples;Min_cycle;Max_cycle;Signal;HPM_P1;HPM_P2
2021/09/24 00:00:17;;;;;;;11.75;7.97;;;;;;;17.65;72.73;100371.00;5072918;28;20059;-60
2021/09/24 00:02:45;;;;;;;10.13;7.72;;;;;;;17.58;73.18;100364.41;5072339;28;20048;-61
2021/09/24 00:05:13;;;;;;;10.88;7.65;;;;;;;17.64;72.81;100363.75;5087557;28;20059;-59
2021/09/24 00:07:40;;;;;;;13.40;7.50;;;;;;;17.63;72.98;100361.31;5092974;28;20052;-60
2021/09/24 00:10:09;;;;;;;8.93;7.20;;;;;;;17.58;73.48;100362.41;5085704;28;20059;-59
2021/09/24 00:12:37;;;;;;;10.65;7.30;;;;;;;17.60;73.35;100368.50;5089294;28;20048;-59
2021/09/24 00:15:10;;;;;;;12.40;8.07;;;;;;;17.50;73.96;100369.03;5091870;28;20422;-60
2021/09/24 00:17:37;;;;;;;13.00;8.35;;;;;;;17.45;74.08;100370.13;5092839;28;20074;-60
2021/09/24 00:20:06;;;;;;;15.20;10.02;;;;;;;17.47;74.10;100364.16;5092300;28;20099;-60
2021/09/24 00:22:34;;;;;;;13.05;10.57;;;;;;;17.35;74.86;100365.03;5092473;28;20071;-60
2021/09/24 00:25:01;;;;;;;15.40;11.27;;;;;;;17.35;74.96;100359.41;5092542;28;20375;-60
2021/09/24 00:27:29;;;;;;;14.77;11.52;;;;;;;17.38;74.91;100355.84;5092325;28;20470;-60
2021/09/24 00:29:56;;;;;;;15.50;12.50;;;;;;;17.35;75.10;100350.97;5092507;28;20479;-59
2021/09/24 00:32:25;;;;;;;15.07;12.18;;;;;;;17.41;74.86;100354.34;5091952;28;20048;-60
2021/09/24 00:34:52;;;;;;;17.00;12.85;;;;;;;17.32;75.47;100346.06;5092467;28;20056;-59
2021/09/24 00:37:20;;;;;;;14.82;11.77;;;;;;;17.39;75.09;100340.63;5092195;28;20364;-60
2021/09/24 00:39:47;;;;;;;14.23;12.57;;;;;;;17.36;75.26;100344.16;5092066;28;20056;-60
2021/09/24 00:42:14;;;;;;;17.67;12.23;;;;;;;17.27;75.67;100349.16;5092398;28;20052;-60
2021/09/24 00:44:47;;;;;;;15.75;12.77;;;;;;;17.34;75.48;100340.06;5092235;28;20059;-60
2021/09/24 00:47:14;;;;;;;17.38;13.05;;;;;;;17.34;75.82;100348.50;5092298;28;20063;-60
2021/09/24 00:49:44;;;;;;;19.15;13.70;;;;;;;17.38;75.63;100341.78;5092124;28;20405;-60
2021/09/24 00:52:11;;;;;;;15.05;12.48;;;;;;;17.39;75.57;100337.00;5092393;28;20056;-60
2021/09/24 00:54:40;;;;;;;16.02;12.85;;;;;;;17.50;75.15;100335.25;5091858;28;20383;-60
2021/09/24 00:57:08;;;;;;;17.67;13.65;;;;;;;17.50;75.17;100329.63;5092116;28;20052;-61
2021/09/24 00:59:36;;;;;;;17.13;13.88;;;;;;;17.45;75.39;100333.53;5091028;28;20056;-59
2021/09/24 01:02:03;;;;;;;16.05;14.35;;;;;;;17.54;74.79;100329.72;5092024;28;20048;-60
2021/09/24 01:04:31;;;;;;;19.73;15.20;;;;;;;17.43;75.37;100324.63;5091852;28;20056;-61
2021/09/24 01:07:01;;;;;;;19.23;14.77;;;;;;;17.48;75.12;100336.81;5092174;28;20475;-60
2021/09/24 01:09:28;;;;;;;17.45;14.70;;;;;;;17.52;75.02;100330.06;5091828;28;20418;-60
2021/09/24 01:11:56;;;;;;;18.70;15.48;;;;;;;17.59;74.76;100323.78;5091227;28;20410;-60
2021/09/24 01:14:28;;;;;;;18.60;15.20;;;;;;;17.54;75.00;100326.91;5094571;28;20056;-59
2021/09/24 01:16:55;;;;;;;17.98;15.00;;;;;;;17.60;74.79;100323.44;5095695;28;20055;-60
2021/09/24 01:19:23;;;;;;;19.77;14.93;;;;;;;17.63;74.81;100330.31;5095285;28;20382;-60
2021/09/24 01:21:52;;;;;;;21.02;16.80;;;;;;;17.67;74.66;100325.59;5095314;28;20059;-60
2021/09/24 01:24:19;;;;;;;;;;;;;;;17.64;74.53;100323.53;5095301;28;20525;-60
2021/09/24 01:26:47;;;;;;;19.35;16.13;;;;;;;17.69;74.73;100325.22;5095193;28;19924;-60
2021/09/24 01:29:16;;;;;;;19.95;15.73;;;;;;;17.67;74.74;100325.59;5095123;28;20056;-59
2021/09/24 01:31:43;;;;;;;19.95;15.30;;;;;;;17.71;74.40;100325.69;5094613;28;20055;-60
2021/09/24 01:34:11;;;;;;;19.80;15.75;;;;;;;17.69;74.61;100326.03;5095390;28;20055;-60
2021/09/24 01:36:39;;;;;;;18.95;15.00;;;;;;;17.76;74.52;100339.47;5095129;28;20383;-60
2021/09/24 01:39:10;;;;;;;19.90;15.93;;;;;;;17.70;74.86;100336.13;5095514;28;20056;-60
2021/09/24 01:41:39;;;;;;;20.98;15.73;;;;;;;17.76;74.71;100339.47;5095492;28;20058;-60
2021/09/24 01:44:06;;;;;;;18.42;16.08;;;;;;;17.81;74.41;100334.38;5095055;28;20036;-59
2021/09/24 01:46:37;;;;;;;18.92;15.88;;;;;;;17.78;74.62;100332.28;5095072;28;20048;-60
2021/09/24 01:49:05;;;;;;;20.23;16.90;;;;;;;17.78;74.68;100337.91;5094583;28;20052;-60
2021/09/24 01:51:33;;;;;;;22.63;18.50;;;;;;;17.88;74.03;100338.59;5094567;28;20060;-59
2021/09/24 01:54:01;;;;;;;21.40;17.73;;;;;;;17.79;74.26;100333.94;5094499;28;20414;-60
2021/09/24 01:56:30;;;;;;;20.70;16.92;;;;;;;17.84;74.19;100332.84;5093883;28;20055;-60
2021/09/24 01:58:58;;;;;;;;;;;;;;;17.88;73.98;100330.13;5095227;28;20375;-60
2021/09/24 02:01:26;;;;;;;21.30;17.92;;;;;;;17.90;73.89;100331.38;5094900;28;20405;-60
2021/09/24 02:03:53;;;;;;;22.83;17.75;;;;;;;17.93;74.00;100343.91;5093247;28;20081;-60
2021/09/24 02:06:20;;;;;;;20.38;17.02;;;;;;;17.97;73.96;100342.00;5094338;28;20422;-60
2021/09/24 02:08:48;;;;;;;22.30;17.88;;;;;;;18.00;73.76;100341.28;5094513;28;20059;-60
2021/09/24 02:11:15;;;;;;;21.27;17.90;;;;;;;18.03;73.50;100341.34;5094484;28;20058;-60
2021/09/24 02:13:44;;;;;;;23.63;18.50;;;;;;;18.08;73.51;100336.59;5094367;28;20055;-60
2021/09/24 02:16:13;;;;;;;23.73;18.77;;;;;;;18.09;73.56;100339.06;5094199;28;20051;-60
2021/09/24 02:18:42;;;;;;;23.65;18.80;;;;;;;18.10;73.43;100337.03;5094234;28;20048;-58
2021/09/24 02:21:13;;;;;;;27.43;19.30;;;;;;;18.11;73.25;100335.88;5094848;28;20047;-59
2021/09/24 02:23:40;;;;;;;25.27;20.23;;;;;;;18.12;73.23;100340.31;5093508;28;20410;-60
2021/09/24 02:26:08;;;;;;;30.35;21.77;;;;;;;18.12;72.97;100337.50;5093705;28;20059;-60
2021/09/24 02:28:40;;;;;;;29.52;22.20;;;;;;;18.06;73.15;100334.16;5094349;28;20052;-60
2021/09/24 02:31:09;;;;;;;30.10;21.30;;;;;;;18.11;73.00;100339.50;5094138;28;20394;-60
2021/09/24 02:33:36;;;;;;;;;;;;;;;17.99;73.25;100334.00;5093801;28;20067;-59
2021/09/24 02:36:04;;;;;;;30.50;22.45;;;;;;;18.07;72.79;100332.97;5093836;28;19931;-58
2021/09/24 02:38:32;;;;;;;30.65;23.30;;;;;;;18.08;73.12;100333.78;5093552;28;20048;-59
2021/09/24 02:40:59;;;;;;;33.17;23.50;;;;;;;18.08;73.06;100336.59;5094030;28;20063;-59
2021/09/24 02:43:27;;;;;;;34.05;25.08;;;;;;;18.10;72.80;100337.03;5093420;28;20390;-59
2021/09/24 02:45:54;;;;;;;34.25;26.35;;;;;;;17.99;73.14;100334.00;5073459;28;20063;-59
2021/09/24 02:48:23;;;;;;;37.55;27.10;;;;;;;18.06;72.89;100339.81;5073443;28;20106;-60
2021/09/24 02:50:51;;;;;;;38.72;26.92;;;;;;;18.03;72.88;100340.53;5073807;28;20394;-59
2021/09/24 02:53:18;;;;;;;37.13;27.60;;;;;;;18.02;73.02;100345.34;5073252;28;20156;-59
2021/09/24 02:55:45;;;;;;;41.92;28.83;;;;;;;18.05;72.80;100343.78;5092019;28;20052;-59
2021/09/24 02:58:13;;;;;;;42.22;28.23;;;;;;;18.01;72.83;100343.69;5093577;28;20048;-60
2021/09/24 03:00:40;;;;;;;39.95;29.02;;;;;;;17.96;72.89;100331.94;5093529;28;20048;-60
2021/09/24 03:03:07;;;;;;;42.22;30.70;;;;;;;17.91;72.94;100333.03;5093069;28;20052;-60
2021/09/24 03:05:36;;;;;;;46.58;30.52;;;;;;;17.89;73.08;100334.56;5092705;28;20052;-60
2021/09/24 03:08:04;;;;;;;43.80;30.75;;;;;;;17.80;73.54;100343.19;5093274;28;20051;-59
2021/09/24 03:10:32;;;;;;;40.60;29.42;;;;;;;17.72;73.80;100338.56;5093427;28;20048;-56
2021/09/24 03:12:59;;;;;;;40.55;28.95;;;;;;;17.72;74.04;100347.03;5093188;28;20052;-59
2021/09/24 03:15:27;;;;;;;41.60;28.83;;;;;;;17.83;73.43;100348.13;5093716;28;20048;-59
2021/09/24 03:17:54;;;;;;;43.00;28.98;;;;;;;17.82;73.56;100341.66;5093786;28;20501;-59
2021/09/24 03:20:22;;;;;;;46.00;30.70;;;;;;;17.82;73.52;100330.41;5093281;28;20055;-58
2021/09/24 03:22:50;;;;;;;40.22;28.83;;;;;;;17.62;74.14;100325.88;5093707;28;20052;-59
2021/09/24 03:25:18;;;;;;;39.57;27.83;;;;;;;17.73;73.84;100337.41;5093079;28;20063;-60
2021/09/24 03:27:45;;;;;;;34.88;24.67;;;;;;;17.66;73.88;100332.41;5093260;28;20052;-60
2021/09/24 03:30:14;;;;;;;38.22;26.67;;;;;;;17.67;74.07;100336.84;5092943;28;20490;-59
2021/09/24 03:32:41;;;;;;;35.05;24.90;;;;;;;17.77;73.47;100339.13;5092970;28;20096;-60
2021/09/24 03:35:09;;;;;;;35.97;24.85;;;;;;;17.64;73.69;100331.97;5092445;28;20048;-60
2021/09/24 03:37:37;;;;;;;35.60;24.85;;;;;;;17.62;73.87;100332.31;5092321;28;20044;-60
2021/09/24 03:40:07;;;;;;;36.15;24.17;;;;;;;17.61;73.79;100333.50;5092483;28;20398;-60
2021/09/24 03:42:35;;;;;;;32.15;23.05;;;;;;;17.56;74.13;100332.97;5092893;28;20059;-59
2021/09/24 03:45:02;;;;;;;33.97;24.38;;;;;;;17.59;74.32;100332.22;5092870;28;20052;-60
2021/09/24 03:47:34;;;;;;;32.28;22.77;;;;;;;17.63;73.93;100327.50;5093321;28;20463;-59
2021/09/24 03:50:02;;;;;;;29.92;22.13;;;;;;;17.69;74.11;100330.88;5092709;28;20055;-60
2021/09/24 03:52:29;;;;;;;29.20;23.38;;;;;;;17.69;73.97;100323.22;5092419;28;20056;-57
2021/09/24 03:54:56;;;;;;;36.50;23.60;;;;;;;17.66;74.00;100332.41;5084542;28;20048;-58
2021/09/24 03:57:25;;;;;;;32.05;22.30;;;;;;;17.76;73.67;100328.19;5072851;28;20485;-58
2021/09/24 03:59:52;;;;;;;29.47;21.57;;;;;;;17.80;73.50;100326.28;5072433;28;20406;-60
2021/09/24 04:02:19;;;;;;;32.30;22.50;;;;;;;17.85;73.39;100340.13;5072681;28;20418;-60
2021/09/24 04:04:47;;;;;;;34.00;22.70;;;;;;;17.87;73.41;100328.47;5087833;28;20047;-60
2021/09/24 04:07:15;;;;;;;31.33;23.77;;;;;;;17.91;73.33;100332.19;5092544;28;20490;-60
2021/09/24 04:09:42;;;;;;;31.80;22.83;;;;;;;17.93;72.93;100335.47;5092920;28;20056;-60
2021/09/24 04:12:10;;;;;;;32.72;22.58;;;;;;;17.95;72.85;100327.47;5091803;28;20403;-59
2021/09/24 04:14:39;;;;;;;31.92;22.55;;;;;;;17.96;73.04;100331.94;5092776;28;20063;-60
2021/09/24 04:17:07;;;;;;;32.05;22.50;;;;;;;17.97;73.16;100333.53;5092147;28;20056;-59
2021/09/24 04:19:34;;;;;;;34.47;24.15;;;;;;;17.97;72.66;100327.91;5092219;28;20052;-60
2021/09/24 04:22:02;;;;;;;31.35;24.13;;;;;;;17.93;72.98;100327.00;5091987;28;20390;-60
2021/09/24 04:24:29;;;;;;;36.92;25.98;;;;;;;17.80;73.57;100332.72;5092031;28;20776;-59
2021/09/24 04:26:56;;;;;;;36.05;26.20;;;;;;;17.92;73.16;100336.66;5092252;28;20463;-59
2021/09/24 04:29:24;;;;;;;37.40;27.27;;;;;;;17.86;73.23;100330.47;5092597;28;20059;-59
2021/09/24 04:31:53;;;;;;;35.30;27.15;;;;;;;17.51;74.64;100336.88;5092260;28;20055;-60
2021/09/24 04:34:22;;;;;;;36.90;27.42;;;;;;;17.68;73.99;100321.59;5092553;28;20052;-60
2021/09/24 04:36:49;;;;;;;;;;;;;;;17.71;73.74;100322.88;5092643;28;20048;-60
2021/09/24 04:39:17;;;;;;;35.30;26.83;;;;;;;17.76;73.61;100325.38;5092140;28;19928;-59
2021/09/24 04:41:44;;;;;;;38.25;28.17;;;;;;;17.67;73.90;100328.41;5092406;28;20421;-60
2021/09/24 04:44:12;;;;;;;38.40;26.98;;;;;;;17.54;74.67;100324.88;5091697;28;20044;-60
2021/09/24 04:46:39;;;;;;;42.72;29.08;;;;;;;17.61;74.19;100321.41;5092118;28;20383;-60
2021/09/24 04:49:08;;;;;;;37.50;27.67;;;;;;;17.64;74.53;100315.88;5094071;28;20394;-60
2021/09/24 04:51:35;;;;;;;38.23;29.57;;;;;;;17.66;74.08;100312.69;5096210;28;20059;-60
2021/09/24 04:54:03;;;;;;;40.88;30.27;;;;;;;17.57;74.36;100317.69;5095546;28;20500;-60
2021/09/24 04:56:30;;;;;;;39.15;29.67;;;;;;;17.49;74.96;100318.72;5096179;28;20391;-59
2021/09/24 04:58:57;;;;;;;40.13;31.05;;;;;;;17.53;74.73;100316.78;5095377;28;20052;-60
2021/09/24 05:01:25;;;;;;;38.10;29.42;;;;;;;17.49;74.89;100319.53;5095893;28;20056;-60
2021/09/24 05:03:52;;;;;;;41.53;30.17;;;;;;;17.58;74.67;100322.16;5095711;28;20489;-59
2021/09/24 05:06:21;;;;;;;38.70;31.42;;;;;;;17.40;75.34;100319.72;5095849;28;20055;-60
2021/09/24 05:08:48;;;;;;;41.55;30.52;;;;;;;17.34;75.57;100326.78;5094788;28;20052;-60
2021/09/24 05:11:16;;;;;;;38.30;30.05;;;;;;;17.29;75.94;100321.44;5093829;28;20044;-60
2021/09/24 05:13:44;;;;;;;38.42;29.58;;;;;;;17.37;75.73;100330.91;5094320;28;20048;-60
2021/09/24 05:16:12;;;;;;;37.83;30.40;;;;;;;17.36;75.70;100324.44;5095309;28;20059;-60
2021/09/24 05:18:39;;;;;;;43.83;31.20;;;;;;;17.42;75.54;100322.97;5095268;28;20678;-60
2021/09/24 05:21:07;;;;;;;39.88;29.75;;;;;;;17.54;75.20;100326.91;5093273;28;20085;-60
2021/09/24 05:23:36;;;;;;;42.63;30.25;;;;;;;17.47;75.26;100319.09;5093537;28;20052;-60
2021/09/24 05:26:04;;;;;;;41.38;29.95;;;;;;;17.37;75.69;100323.28;5095319;28;20048;-60
2021/09/24 05:28:31;;;;;;;38.60;28.75;;;;;;;17.45;75.30;100322.25;5091823;28;20052;-60
2021/09/24 05:30:59;;;;;;;39.38;28.83;;;;;;;17.49;75.36;100325.19;5091730;28;20044;-59
2021/09/24 05:33:26;;;;;;;37.75;29.00;;;;;;;17.44;75.68;100322.63;5093630;28;20048;-60
2021/09/24 05:35:53;;;;;;;37.40;28.63;;;;;;;17.33;76.07;100319.53;5094969;28;20059;-60
2021/09/24 05:38:21;;;;;;;36.65;28.40;;;;;;;17.31;75.85;100321.91;5091978;28;20391;-59
2021/09/24 05:40:50;;;;;;;37.17;27.67;;;;;;;17.35;75.67;100317.19;5093055;28;20052;-59
2021/09/24 05:43:17;;;;;;;37.65;28.58;;;;;;;17.43;75.29;100323.81;5094746;28;20052;-60
2021/09/24 05:45:45;;;;;;;34.65;27.17;;;;;;;17.51;74.94;100321.97;5095231;28;20048;-60
2021/09/24 05:48:12;;;;;;;35.92;26.95;;;;;;;17.43;75.56;100326.63;5095534;28;20138;-60
2021/09/24 05:50:40;;;;;;;33.83;27.92;;;;;;;17.52;74.76;100320.81;5095163;28;20052;-60
2021/09/24 05:53:07;;;;;;;35.83;27.20;;;;;;;17.57;74.61;100317.69;5094543;28;20056;-57
2021/09/24 05:55:34;;;;;;;38.17;27.25;;;;;;;17.21;76.15;100316.81;5094605;28;20048;-60
2021/09/24 05:58:03;;;;;;;37.47;27.35;;;;;;;17.30;76.03;100311.81;5095005;28;20063;-60
2021/09/24 06:00:31;;;;;;;37.50;27.48;;;;;;;17.46;75.09;100323.06;5091903;28;20048;-60
2021/09/24 06:02:58;;;;;;;36.03;25.88;;;;;;;17.51;75.03;100314.34;5094408;28;20055;-59
2021/09/24 06:05:25;;;;;;;37.42;27.92;;;;;;;17.54;75.01;100312.81;5093178;28;20406;-60
2021/09/24 06:07:53;;;;;;;36.63;26.13;;;;;;;17.62;74.50;100314.63;5092565;28;20059;-60
2021/09/24 06:10:20;;;;;;;36.72;25.92;;;;;;;17.69;74.11;100323.22;5094269;28;20040;-58
2021/09/24 06:12:49;;;;;;;36.83;26.38;;;;;;;17.60;74.59;100311.34;5078355;28;20053;-59
2021/09/24 06:15:20;;;;;;;37.42;26.63;;;;;;;17.66;74.41;100309.88;5089894;28;20052;-60
2021/09/24 06:17:49;;;;;;;36.22;26.38;;;;;;;17.74;74.34;100317.28;5093079;28;20410;-60
2021/09/24 06:20:17;;;;;;;37.72;27.38;;;;;;;17.73;74.35;100310.03;5086019;28;20422;-60
2021/09/24 06:22:46;;;;;;;36.60;27.20;;;;;;;17.73;74.40;100315.66;5091430;28;20055;-59
2021/09/24 06:25:14;;;;;;;34.00;25.95;;;;;;;17.87;73.86;100306.78;5093734;28;20425;-59
2021/09/24 06:27:42;;;;;;;38.17;26.73;;;;;;;17.84;73.99;100308.31;5094751;28;20048;-60
2021/09/24 06:30:12;;;;;;;41.67;28.98;;;;;;;17.91;73.63;100304.00;5093478;28;20059;-59
2021/09/24 06:32:41;;;;;;;39.30;27.17;;;;;;;17.91;74.00;100304.00;5094370;28;20070;-59
2021/09/24 06:35:10;;;;;;;40.33;28.27;;;;;;;17.88;74.02;100307.59;5093669;28;20044;-60
2021/09/24 06:37:37;;;;;;;39.53;27.83;;;;;;;17.70;75.11;100307.97;5073736;28;20048;-59
2021/09/24 06:40:08;;;;;;;40.75;28.58;;;;;;;17.83;74.38;100308.69;5075174;28;20059;-59
2021/09/24 06:42:36;;;;;;;42.03;28.67;;;;;;;17.91;74.47;100304.00;5094331;28;20056;-60
2021/09/24 06:45:07;;;;;;;38.78;27.92;;;;;;;17.90;74.49;100313.66;5093157;28;20406;-59
2021/09/24 06:47:34;;;;;;;40.58;27.70;;;;;;;17.95;74.39;100311.34;5093870;28;20052;-60
2021/09/24 06:50:04;;;;;;;41.13;28.33;;;;;;;17.85;74.91;100314.78;5094151;28;20398;-61
2021/09/24 06:52:31;;;;;;;40.55;28.45;;;;;;;17.81;75.12;100311.84;5093733;28;20052;-60
2021/09/24 06:54:59;;;;;;;41.38;28.60;;;;;;;18.11;73.99;100314.13;5088658;28;20394;-60
2021/09/24 06:57:26;;;;;;;41.53;28.98;;;;;;;17.93;74.60;100310.09;5083348;28;20048;-60
2021/09/24 06:59:54;;;;;;;40.45;28.63;;;;;;;18.10;74.15;100311.69;5087539;28;20056;-60
2021/09/24 07:02:21;;;;;;;44.70;29.08;;;;;;;18.12;74.22;100315.78;5075632;28;20063;-60
2021/09/24 07:04:49;;;;;;;41.65;27.83;;;;;;;18.18;73.83;100314.28;5079145;28;20421;-60
2021/09/24 07:07:20;;;;;;;44.83;29.30;;;;;;;18.20;73.66;100320.34;5067070;28;20062;-61
2021/09/24 07:09:47;;;;;;;41.15;28.25;;;;;;;18.25;73.75;100305.19;5084003;28;20052;-60
2021/09/24 07:12:15;;;;;;;44.83;28.15;;;;;;;18.38;73.32;100322.75;5086596;28;20056;-61
2021/09/24 07:14:42;;;;;;;45.60;29.42;;;;;;;18.13;74.25;100320.22;5086422;28;20070;-60
2021/09/24 07:17:09;;;;;;;41.40;27.73;;;;;;;18.32;73.80;100318.59;5081412;28;20052;-60
2021/09/24 07:19:37;;;;;;;43.75;28.95;;;;;;;18.48;72.98;100325.00;5078505;28;20059;-60
2021/09/24 07:22:04;;;;;;;41.83;27.40;;;;;;;18.44;73.39;100327.72;5087161;28;20050;-60
2021/09/24 07:24:33;;;;;;;44.80;28.80;;;;;;;18.39;73.24;100330.00;5074518;28;20052;-59
2021/09/24 07:27:01;;;;;;;42.20;28.38;;;;;;;18.46;72.94;100327.34;5084018;28;20052;-60
2021/09/24 07:29:29;;;;;;;43.75;28.33;;;;;;;18.54;72.87;100331.13;5078648;28;20049;-59
2021/09/24 07:31:56;;;;;;;47.55;30.13;;;;;;;18.37;73.49;100327.59;5088261;28;20101;-60
2021/09/24 07:34:23;;;;;;;45.10;29.60;;;;;;;18.36;73.48;100320.31;5089250;28;20429;-60
2021/09/24 07:36:51;;;;;;;44.05;27.90;;;;;;;18.60;72.64;100319.16;5079376;28;20047;-60
2021/09/24 07:39:18;;;;;;;40.47;26.95;;;;;;;18.74;72.24;100317.81;5090247;28;20052;-60
2021/09/24 07:41:47;;;;;;;43.95;28.48;;;;;;;18.80;71.93;100316.38;5087232;28;20051;-60
2021/09/24 07:44:14;;;;;;;42.63;26.93;;;;;;;18.69;71.68;100320.94;5090493;28;20483;-60
2021/09/24 07:46:44;;;;;;;38.10;26.15;;;;;;;18.55;72.12;100327.94;5083869;28;21389;-60
2021/09/24 07:49:12;;;;;;;39.30;27.42;;;;;;;18.59;72.03;100325.19;5073566;28;20493;-60
2021/09/24 07:51:39;;;;;;;41.85;27.88;;;;;;;18.71;71.59;100325.03;5083758;28;20060;-60
2021/09/24 07:54:06;;;;;;;41.60;27.30;;;;;;;18.67;71.86;100330.59;5086169;28;20470;-60
2021/09/24 07:56:34;;;;;;;39.17;26.23;;;;;;;18.71;71.62;100325.03;5075903;28;20056;-60
2021/09/24 07:59:02;;;;;;;33.25;24.50;;;;;;;18.67;71.71;100329.78;5077854;28;20075;-60
2021/09/24 08:01:30;;;;;;;37.03;25.52;;;;;;;18.91;71.02;100327.84;5087995;28;20052;-60
2021/09/24 08:03:57;;;;;;;32.97;23.85;;;;;;;18.95;70.83;100329.53;5089815;28;20059;-60
2021/09/24 08:06:25;;;;;;;35.72;24.40;;;;;;;19.15;70.22;100335.13;5081507;28;20056;-59
2021/09/24 08:08:52;;;;;;;34.47;23.80;;;;;;;19.33;69.30;100326.97;5086765;28;20380;-60
2021/09/24 08:11:19;;;;;;;31.63;24.60;;;;;;;19.47;68.88;100330.03;5074834;28;20056;-59
2021/09/24 08:13:46;;;;;;;34.05;25.30;;;;;;;19.53;68.96;100330.50;5076197;28;20052;-59
2021/09/24 08:16:15;;;;;;;33.25;23.77;;;;;;;19.54;68.29;100337.81;5083849;28;20088;-60
2021/09/24 08:18:43;;;;;;;31.75;23.45;;;;;;;19.59;68.33;100337.47;5086844;28;20074;-60
2021/09/24 08:21:10;;;;;;;31.90;22.45;;;;;;;19.55;68.12;100347.91;5079460;28;20063;-60
2021/09/24 08:23:41;;;;;;;28.40;23.20;;;;;;;19.46;67.95;100348.16;5085531;28;20062;-60
2021/09/24 08:26:09;;;;;;;31.17;21.15;;;;;;;19.83;66.70;100344.75;5085985;28;20048;-61
2021/09/24 08:28:38;;;;;;;28.13;21.48;;;;;;;19.62;66.78;100348.03;5081659;28;20061;-60
2021/09/24 08:31:05;;;;;;;27.80;21.73;;;;;;;19.68;66.65;100352.16;5079138;28;20063;-60
2021/09/24 08:33:34;;;;;;;26.67;20.50;;;;;;;19.57;66.79;100360.47;5091141;28;20059;-61
2021/09/24 08:36:01;;;;;;;27.70;20.48;;;;;;;19.43;67.13;100354.59;5094161;28;20052;-61
2021/09/24 08:38:29;;;;;;;25.35;20.20;;;;;;;19.01;68.47;100367.56;5089255;28;20052;-61
2021/09/24 08:40:56;;;;;;;26.23;20.27;;;;;;;19.18;67.96;100363.44;5078520;28;20425;-61
2021/09/24 08:43:24;;;;;;;24.83;21.38;;;;;;;19.20;68.14;100363.88;5077104;28;20496;-60
2021/09/24 08:45:51;;;;;;;26.38;20.85;;;;;;;19.33;67.27;100352.41;5086257;28;20059;-59
2021/09/24 08:48:20;;;;;;;25.90;20.73;;;;;;;19.08;68.22;100361.22;5089230;28;20040;-60
2021/09/24 08:50:51;;;;;;;;;;;;;;;19.47;66.90;100361.91;5086623;28;20056;-60
2021/09/24 08:53:21;;;;;;;24.98;19.83;;;;;;;19.16;67.60;100356.53;5084831;28;19931;-60
2021/09/24 08:55:49;;;;;;;27.00;20.42;;;;;;;19.39;66.79;100357.34;5085856;28;20060;-61
2021/09/24 08:58:17;;;;;;;25.85;19.00;;;;;;;19.48;66.13;100369.19;5088368;28;20056;-60
2021/09/24 09:00:45;;;;;;;25.63;20.58;;;;;;;19.21;67.19;100371.16;5088824;28;20064;-60
2021/09/24 09:03:14;;;;;;;23.83;19.40;;;;;;;19.50;66.16;100366.00;5083815;28;20063;-60
2021/09/24 09:05:44;;;;;;;22.42;18.90;;;;;;;19.35;66.61;100367.75;5092054;28;20064;-60
2021/09/24 09:08:16;;;;;;;25.10;20.02;;;;;;;19.10;67.50;100366.50;5090279;28;20058;-59
2021/09/24 09:10:49;;;;;;;24.58;20.27;;;;;;;19.55;65.82;100357.22;5088581;28;20053;-59
2021/09/24 09:13:18;;;;;;;22.25;19.17;;;;;;;19.54;66.18;100364.03;5091593;28;20055;-60
2021/09/24 09:15:56;;;;;;;26.05;19.85;;;;;;;19.63;66.05;100364.63;5082666;28;20048;-60
2021/09/24 09:18:23;;;;;;;24.30;19.63;;;;;;;19.69;65.57;100359.44;5081228;28;20051;-60
2021/09/24 09:20:52;;;;;;;24.55;19.77;;;;;;;19.86;65.11;100369.41;5089042;28;20052;-59
2021/09/24 09:23:26;;;;;;;26.23;20.50;;;;;;;19.99;64.12;100365.19;5082228;28;20053;-58
2021/09/24 09:25:56;;;;;;;24.20;20.33;;;;;;;19.87;64.45;100362.59;5088826;28;20421;-59
2021/09/24 09:28:31;;;;;;;23.77;19.10;;;;;;;19.83;64.16;100371.00;5089924;28;20063;-58
2021/09/24 09:30:59;;;;;;;22.73;19.40;;;;;;;19.90;64.01;100373.13;5088398;28;20398;-59
2021/09/24 09:33:28;;;;;;;25.02;19.55;;;;;;;19.64;64.37;100368.25;5084981;28;20406;-60
2021/09/24 09:36:01;;;;;;;24.35;19.35;;;;;;;19.75;63.93;100366.44;5083704;28;20063;-60
2021/09/24 09:38:32;;;;;;;24.58;19.90;;;;;;;19.56;64.44;100369.31;5083726;28;20056;-59
2021/09/24 09:41:04;;;;;;;24.00;20.35;;;;;;;19.79;64.22;100372.97;5083530;28;20503;-58
2021/09/24 09:43:34;;;;;;;24.33;19.52;;;;;;;19.75;64.10;100359.97;5083459;28;20060;-60
2021/09/24 09:46:04;;;;;;;24.63;19.83;;;;;;;19.87;63.72;100366.22;5082990;28;20094;-59
2021/09/24 09:48:32;;;;;;;23.88;19.05;;;;;;;19.70;64.36;100371.56;5088376;28;20052;-60
2021/09/24 09:50:59;;;;;;;25.02;19.77;;;;;;;19.76;64.29;100370.91;5083643;28;20065;-59
2021/09/24 09:53:29;;;;;;;22.27;19.10;;;;;;;19.80;64.18;100370.94;5077120;28;20475;-59
2021/09/24 09:55:59;;;;;;;28.13;20.58;;;;;;;19.97;63.90;100375.22;5086842;28;20060;-59
2021/09/24 09:58:28;;;;;;;25.40;20.00;;;;;;;19.97;63.77;100367.59;5086723;28;20048;-59
2021/09/24 10:01:03;;;;;;;25.15;20.58;;;;;;;19.84;63.82;100366.16;5092827;28;20059;-59
2021/09/24 10:03:35;;;;;;;26.00;20.42;;;;;;;19.96;63.47;100363.13;5090703;28;20505;-60
2021/09/24 10:06:04;;;;;;;26.70;20.25;;;;;;;19.95;63.48;100363.50;5069371;28;20062;-60
2021/09/24 10:08:34;;;;;;;23.10;19.30;;;;;;;20.00;63.24;100366.00;5056373;28;20044;-60
2021/09/24 10:11:06;;;;;;;;;;;;;;;20.16;63.10;100360.16;5066680;28;20051;-59
2021/09/24 10:13:37;;;;;;;27.05;20.67;;;;;;;20.40;62.38;100361.72;5058403;28;19920;-60
2021/09/24 10:16:06;;;;;;;25.40;19.88;;;;;;;20.60;61.34;100354.72;5064626;28;20056;-60
2021/09/24 10:18:34;;;;;;;24.75;19.27;;;;;;;20.69;60.89;100348.75;5070208;28;20504;-60
2021/09/24 10:21:02;;;;;;;22.83;18.42;;;;;;;20.83;60.40;100342.44;5065699;28;20060;-57
2021/09/24 10:23:29;;;;;;;22.17;17.92;;;;;;;20.88;59.76;100342.09;5059633;28;20049;-59
2021/09/24 10:26:03;;;;;;;21.52;18.63;;;;;;;20.90;60.04;100350.22;5069113;28;20652;-60
2021/09/24 10:28:34;;;;;;;21.45;18.40;;;;;;;21.00;59.07;100341.81;5063007;28;20056;-60
2021/09/24 10:31:03;;;;;;;22.00;17.77;;;;;;;21.38;57.81;100342.59;5066157;28;20063;-60
2021/09/24 10:33:46;;;;;;;20.27;16.15;;;;;;;22.16;56.08;100333.03;5061643;28;20060;-59
2021/09/24 10:36:42;;;;;;;21.58;17.58;;;;;;;22.61;54.12;100344.19;5070330;28;20063;-60
2021/09/24 10:39:41;;;;;;;18.65;16.67;;;;;;;23.12;52.86;100346.00;5059541;28;20467;-60
2021/09/24 10:42:23;;;;;;;17.42;15.27;;;;;;;23.01;52.38;100351.63;5065849;28;20059;-60
2021/09/24 10:45:03;;;;;;;16.27;14.65;;;;;;;23.40;52.35;100338.72;5055253;28;20051;-60
2021/09/24 10:47:48;;;;;;;;;;;;;;;22.92;52.54;100336.97;5065729;28;20051;-59
2021/09/24 10:51:02;;;;;;;18.70;15.70;;;;;;;23.36;51.56;100330.16;5064291;28;19921;-60
2021/09/24 10:53:42;;;;;;;17.45;15.60;;;;;;;23.08;52.25;100331.78;5063783;28;20060;-59
2021/09/24 10:56:30;;;;;;;17.30;15.52;;;;;;;23.39;51.27;100326.53;5067916;28;20049;-60
2021/09/24 10:59:25;;;;;;;18.05;15.77;;;;;;;23.70;51.12;100338.28;5067947;28;20040;-60
2021/09/24 11:01:53;;;;;;;20.48;16.13;;;;;;;23.69;49.91;100328.13;5063923;28;20501;-60
2021/09/24 11:04:20;;;;;;;18.92;15.65;;;;;;;23.45;51.35;100329.75;5065236;28;20052;-59
2021/09/24 11:06:51;;;;;;;16.90;15.20;;;;;;;23.66;50.89;100337.47;5079507;28;20067;-60
2021/09/24 11:09:21;;;;;;;17.58;15.77;;;;;;;23.14;51.74;100331.34;5081903;28;20059;-60
2021/09/24 11:11:51;;;;;;;16.85;15.07;;;;;;;23.06;51.67;100331.38;5077836;28;20052;-59
2021/09/24 11:14:25;;;;;;;16.38;13.85;;;;;;;23.39;51.53;100339.91;5078077;28;20056;-60
2021/09/24 11:16:54;;;;;;;16.02;14.43;;;;;;;23.56;50.79;100335.44;5080272;28;20398;-59
2021/09/24 11:19:45;;;;;;;15.13;13.55;;;;;;;23.65;49.94;100333.00;5081264;28;20052;-60